createdAt,value
2017-05-17T00:00:59.904Z,0
2017-05-17T00:01:59.893Z,0
2017-05-17T00:02:59.883Z,0
2017-05-17T00:03:59.876Z,0
2017-05-17T00:04:59.868Z,0
2017-05-17T00:05:59.546Z,0
2017-05-17T00:06:59.835Z,0
2017-05-17T00:07:59.821Z,0
2017-05-17T00:08:59.811Z,0
2017-05-17T00:09:59.801Z,0
2017-05-17T00:10:59.793Z,0
2017-05-17T00:11:59.785Z,0
2017-05-17T00:12:59.760Z,0
2017-05-17T00:13:59.763Z,0
2017-05-17T00:14:59.452Z,0
2017-05-17T00:15:59.728Z,0
2017-05-17T00:16:59.712Z,0
2017-05-17T00:17:59.708Z,0
2017-05-17T00:18:59.702Z,0
2017-05-17T00:19:59.674Z,0
2017-05-17T00:21:13.308Z,0
2017-05-17T00:21:59.658Z,0
2017-05-17T00:22:59.651Z,0
2017-05-17T00:23:59.638Z,0
2017-05-17T00:24:59.621Z,0
2017-05-17T00:25:59.829Z,0
2017-05-17T00:27:13.242Z,0
2017-05-17T00:27:59.595Z,0
2017-05-17T00:28:59.289Z,0
2017-05-17T00:29:59.568Z,0
2017-05-17T00:30:59.546Z,0
2017-05-17T00:31:59.548Z,0
2017-05-17T00:32:59.529Z,0
2017-05-17T00:33:59.520Z,0
2017-05-17T00:34:59.510Z,0
2017-05-17T00:35:59.503Z,0
2017-05-17T00:36:59.481Z,0
2017-05-17T00:37:59.486Z,0
2017-05-17T00:38:59.465Z,0
2017-05-17T00:39:59.451Z,0
2017-05-17T00:40:59.440Z,0
2017-05-17T00:41:59.430Z,0
2017-05-17T00:42:59.112Z,0
2017-05-17T00:43:59.468Z,0
2017-05-17T00:44:59.390Z,0
2017-05-17T00:45:59.380Z,0
2017-05-17T00:46:59.368Z,0
2017-05-17T00:47:59.356Z,0
2017-05-17T00:48:59.360Z,0
2017-05-17T00:49:59.339Z,0
2017-05-17T00:50:59.315Z,0
2017-05-17T00:51:59.312Z,0
2017-05-17T00:52:59.296Z,0
2017-05-17T00:53:58.977Z,0
2017-05-17T00:54:59.325Z,0
2017-05-17T00:56:13.867Z,0
2017-05-17T00:56:59.244Z,0
2017-05-17T00:57:59.243Z,0
2017-05-17T00:58:59.229Z,0
2017-05-17T00:59:59.211Z,0
2017-05-17T01:00:59.200Z,0
2017-05-17T01:01:59.188Z,0
2017-05-17T01:02:59.381Z,0
2017-05-17T01:03:59.172Z,0
2017-05-17T01:04:59.150Z,0
2017-05-17T01:05:59.194Z,0
2017-05-17T01:06:59.133Z,0
2017-05-17T01:07:59.323Z,0
2017-05-17T01:08:59.109Z,0
2017-05-17T01:09:59.098Z,0
2017-05-17T01:10:58.790Z,0
2017-05-17T01:11:59.079Z,0
2017-05-17T01:12:59.059Z,0
2017-05-17T01:13:59.053Z,0
2017-05-17T01:14:59.034Z,0
2017-05-17T01:15:59.020Z,0
2017-05-17T01:16:59.008Z,0
2017-05-17T01:17:59.006Z,0
2017-05-17T01:18:58.998Z,0
2017-05-17T01:19:58.981Z,0
2017-05-17T01:20:58.993Z,0
2017-05-17T01:21:58.951Z,0
2017-05-17T01:22:58.954Z,0
2017-05-17T01:23:58.934Z,0
2017-05-17T01:24:58.927Z,0
2017-05-17T01:25:58.938Z,0
2017-05-17T01:26:58.916Z,0
2017-05-17T01:27:58.894Z,0
2017-05-17T01:28:58.900Z,0
2017-05-17T01:29:58.880Z,0
2017-05-17T01:30:58.918Z,0
2017-05-17T01:31:58.856Z,0
2017-05-17T01:32:58.849Z,0
2017-05-17T01:33:58.847Z,0
2017-05-17T01:34:58.817Z,0
2017-05-17T01:35:58.810Z,0
2017-05-17T01:36:58.802Z,0
2017-05-17T01:37:58.794Z,0
2017-05-17T01:38:58.988Z,0
2017-05-17T01:39:58.959Z,0
2017-05-17T01:40:58.771Z,0
2017-05-17T01:41:58.792Z,0
2017-05-17T01:42:58.745Z,0
2017-05-17T01:43:58.730Z,0
2017-05-17T01:44:58.722Z,0
2017-05-17T01:45:58.697Z,0
2017-05-17T01:46:58.693Z,0
2017-05-17T01:47:58.689Z,0
2017-05-17T01:48:58.686Z,0
2017-05-17T01:49:58.357Z,0
2017-05-17T01:50:58.653Z,0
2017-05-17T01:51:58.640Z,0
2017-05-17T01:52:58.633Z,0
2017-05-17T01:53:58.620Z,0
2017-05-17T01:54:58.644Z,0
2017-05-17T01:55:58.600Z,0
2017-05-17T01:56:58.589Z,0
2017-05-17T01:57:58.579Z,0
2017-05-17T01:58:58.567Z,0
2017-05-17T01:59:58.566Z,0
2017-05-17T02:00:58.542Z,0
2017-05-17T02:01:58.528Z,0
2017-05-17T02:02:58.525Z,0
2017-05-17T02:03:58.517Z,0
2017-05-17T02:04:58.499Z,0
2017-05-17T02:05:58.487Z,0
2017-05-17T02:06:58.484Z,0
2017-05-17T02:07:58.174Z,0
2017-05-17T02:08:58.463Z,0
2017-05-17T02:09:58.141Z,0
2017-05-17T02:10:58.141Z,0
2017-05-17T02:11:58.330Z,0
2017-05-17T02:12:58.116Z,0
2017-05-17T02:13:58.408Z,0
2017-05-17T02:14:58.398Z,0
2017-05-17T02:15:58.390Z,0
2017-05-17T02:16:58.640Z,0
2017-05-17T02:18:11.747Z,0
2017-05-17T02:18:58.351Z,0
2017-05-17T02:19:58.339Z,0
2017-05-17T02:20:58.339Z,0
2017-05-17T02:21:58.317Z,0
2017-05-17T02:22:58.321Z,0
2017-05-17T02:23:58.001Z,0
2017-05-17T02:24:58.286Z,0
2017-05-17T02:25:58.275Z,0
2017-05-17T02:26:58.269Z,0
2017-05-17T02:27:58.262Z,0
2017-05-17T02:28:58.246Z,0
2017-05-17T02:29:57.932Z,0
2017-05-17T02:30:57.922Z,0
2017-05-17T02:31:58.206Z,0
2017-05-17T02:32:57.895Z,0
2017-05-17T02:33:58.191Z,0
2017-05-17T02:34:58.185Z,0
2017-05-17T02:35:58.168Z,0
2017-05-17T02:36:58.221Z,0
2017-05-17T02:37:58.147Z,0
2017-05-17T02:38:58.146Z,0
2017-05-17T02:39:58.126Z,0
2017-05-17T02:40:58.130Z,0
2017-05-17T02:41:58.109Z,0
2017-05-17T02:42:58.103Z,0
2017-05-17T02:43:58.086Z,0
2017-05-17T02:44:58.079Z,0
2017-05-17T02:45:58.074Z,0
2017-05-17T02:46:58.049Z,0
2017-05-17T02:47:57.745Z,0
2017-05-17T02:48:58.045Z,0
2017-05-17T02:49:58.024Z,0
2017-05-17T02:50:58.017Z,0
2017-05-17T02:51:58.005Z,0
2017-05-17T02:52:58.010Z,0
2017-05-17T02:53:57.687Z,0
2017-05-17T02:54:57.975Z,0
2017-05-17T02:55:57.963Z,0
2017-05-17T02:56:57.953Z,0
2017-05-17T02:57:57.955Z,0
2017-05-17T02:58:57.934Z,0
2017-05-17T02:59:57.632Z,0
2017-05-17T03:00:57.918Z,0
2017-05-17T03:01:57.897Z,0
2017-05-17T03:02:57.889Z,0
2017-05-17T03:03:57.881Z,0
2017-05-17T03:04:57.875Z,0
2017-05-17T03:05:57.856Z,0
2017-05-17T03:06:57.555Z,0
2017-05-17T03:07:57.838Z,0
2017-05-17T03:08:57.835Z,0
2017-05-17T03:09:57.817Z,0
2017-05-17T03:10:57.805Z,0
2017-05-17T03:11:57.803Z,0
2017-05-17T03:12:57.785Z,0
2017-05-17T03:13:57.477Z,0
2017-05-17T03:14:57.774Z,0
2017-05-17T03:15:57.753Z,0
2017-05-17T03:16:57.746Z,0
2017-05-17T03:17:57.740Z,0
2017-05-17T03:18:57.721Z,0
2017-05-17T03:19:57.714Z,0
2017-05-17T03:20:57.703Z,5
2017-05-17T03:21:57.742Z,5
2017-05-17T03:22:57.689Z,5
2017-05-17T03:23:57.675Z,5
2017-05-17T03:24:57.666Z,5
2017-05-17T03:25:57.695Z,5
2017-05-17T03:26:57.645Z,10
2017-05-17T03:27:57.629Z,10
2017-05-17T03:28:57.691Z,10
2017-05-17T03:29:57.612Z,15
2017-05-17T03:30:57.597Z,15
2017-05-17T03:31:57.588Z,15
2017-05-17T03:32:57.582Z,20
2017-05-17T03:33:57.572Z,20
2017-05-17T03:34:57.560Z,25
2017-05-17T03:35:57.557Z,25
2017-05-17T03:36:57.538Z,25
2017-05-17T03:37:57.532Z,30
2017-05-17T03:38:57.520Z,35
2017-05-17T03:39:57.503Z,35
2017-05-17T03:40:57.500Z,40
2017-05-17T03:41:57.489Z,40
2017-05-17T03:42:57.482Z,45
2017-05-17T03:43:57.475Z,45
2017-05-17T03:44:57.463Z,50
2017-05-17T03:45:57.449Z,55
2017-05-17T03:46:57.438Z,60
2017-05-17T03:47:57.427Z,60
2017-05-17T03:48:57.430Z,65
2017-05-17T03:49:57.415Z,70
2017-05-17T03:50:57.098Z,75
2017-05-17T03:51:57.388Z,80
2017-05-17T03:52:57.378Z,80
2017-05-17T03:53:57.372Z,85
2017-05-17T03:54:57.364Z,90
2017-05-17T03:55:57.351Z,95
2017-05-17T03:56:57.343Z,100
2017-05-17T03:57:57.329Z,100
2017-05-17T03:58:57.321Z,105
2017-05-17T03:59:57.307Z,110
2017-05-17T04:00:57.304Z,115
2017-05-17T04:01:57.287Z,120
2017-05-17T04:02:57.282Z,125
2017-05-17T04:03:57.264Z,125
2017-05-17T04:04:57.258Z,130
2017-05-17T04:05:56.950Z,135
2017-05-17T04:06:57.237Z,140
2017-05-17T04:07:57.226Z,145
2017-05-17T04:08:57.267Z,150
2017-05-17T04:09:57.212Z,155
2017-05-17T04:10:57.197Z,155
2017-05-17T04:11:57.179Z,160
2017-05-17T04:12:56.872Z,165
2017-05-17T04:13:57.220Z,170
2017-05-17T04:14:57.161Z,175
2017-05-17T04:15:56.887Z,175
2017-05-17T04:16:57.125Z,180
2017-05-17T04:17:57.120Z,185
2017-05-17T04:18:57.126Z,190
2017-05-17T04:19:57.108Z,190
2017-05-17T04:20:57.084Z,195
2017-05-17T04:21:57.086Z,200
2017-05-17T04:22:57.067Z,205
2017-05-17T04:23:57.057Z,205
2017-05-17T04:24:57.047Z,210
2017-05-17T04:25:57.028Z,210
2017-05-17T04:26:57.026Z,215
2017-05-17T04:27:57.012Z,215
2017-05-17T04:28:56.998Z,220
2017-05-17T04:29:56.996Z,225
2017-05-17T04:30:56.976Z,225
2017-05-17T04:31:56.970Z,230
2017-05-17T04:32:56.963Z,235
2017-05-17T04:33:56.951Z,240
2017-05-17T04:34:56.943Z,245
2017-05-17T04:35:56.927Z,285
2017-05-17T04:36:56.920Z,445
2017-05-17T04:37:56.914Z,540
2017-05-17T04:38:56.899Z,555
2017-05-17T04:39:56.888Z,575
2017-05-17T04:40:56.874Z,600
2017-05-17T04:41:56.869Z,615
2017-05-17T04:42:56.860Z,630
2017-05-17T04:43:56.847Z,655
2017-05-17T04:44:56.896Z,685
2017-05-17T04:45:56.827Z,720
2017-05-17T04:46:56.815Z,740
2017-05-17T04:47:56.816Z,710
2017-05-17T04:48:56.799Z,695
2017-05-17T04:49:56.832Z,700
2017-05-17T04:50:56.773Z,715
2017-05-17T04:51:56.777Z,730
2017-05-17T04:52:56.766Z,750
2017-05-17T04:53:56.749Z,780
2017-05-17T04:54:56.764Z,795
2017-05-17T04:55:56.739Z,845
2017-05-17T04:56:56.731Z,875
2017-05-17T04:57:56.717Z,870
2017-05-17T04:58:56.705Z,870
2017-05-17T04:59:56.698Z,875
2017-05-17T05:00:56.687Z,885
2017-05-17T05:01:56.686Z,925
2017-05-17T05:02:56.671Z,935
2017-05-17T05:03:56.363Z,880
2017-05-17T05:04:56.351Z,890
2017-05-17T05:05:56.638Z,910
2017-05-17T05:06:56.629Z,905
2017-05-17T05:07:56.620Z,920
2017-05-17T05:08:56.611Z,915
2017-05-17T05:09:56.607Z,920
2017-05-17T05:10:56.588Z,915
2017-05-17T05:11:56.588Z,945
2017-05-17T05:12:56.581Z,985
2017-05-17T05:13:56.574Z,990
2017-05-17T05:14:56.555Z,995
2017-05-17T05:15:56.545Z,1025
2017-05-17T05:16:56.555Z,1020
2017-05-17T05:17:56.531Z,1020
2017-05-17T05:18:56.523Z,1040
2017-05-17T05:19:56.530Z,1050
2017-05-17T05:20:56.502Z,1055
2017-05-17T05:21:56.497Z,1005
2017-05-17T05:22:56.187Z,1020
2017-05-17T05:23:56.498Z,1090
2017-05-17T05:24:56.478Z,1110
2017-05-17T05:25:56.499Z,1120
2017-05-17T05:26:56.456Z,1085
2017-05-17T05:27:56.451Z,1080
2017-05-17T05:28:56.448Z,1130
2017-05-17T05:29:56.437Z,1175
2017-05-17T05:30:56.440Z,1190
2017-05-17T05:31:56.115Z,1205
2017-05-17T05:32:56.423Z,1225
2017-05-17T05:33:56.399Z,1250
2017-05-17T05:34:56.464Z,1215
2017-05-17T05:35:56.382Z,1200
2017-05-17T05:36:56.369Z,1225
2017-05-17T05:37:56.370Z,1275
2017-05-17T05:38:56.360Z,1315
2017-05-17T05:39:56.356Z,1340
2017-05-17T05:40:56.399Z,1360
2017-05-17T05:41:56.338Z,1340
2017-05-17T05:42:56.337Z,1330
2017-05-17T05:43:56.327Z,1360
2017-05-17T05:44:56.313Z,1400
2017-05-17T05:45:56.309Z,1430
2017-05-17T05:46:56.304Z,1385
2017-05-17T05:47:56.296Z,1365
2017-05-17T05:48:56.284Z,1395
2017-05-17T05:49:56.283Z,1450
2017-05-17T05:50:56.279Z,1440
2017-05-17T05:51:56.268Z,1420
2017-05-17T05:52:56.270Z,1475
2017-05-17T05:53:56.262Z,1590
2017-05-17T05:54:56.248Z,1555
2017-05-17T05:55:56.249Z,1530
2017-05-17T05:56:56.235Z,1595
2017-05-17T05:57:56.235Z,1565
2017-05-17T05:58:56.226Z,1575
2017-05-17T05:59:56.216Z,1690
2017-05-17T06:00:56.208Z,1730
2017-05-17T06:01:55.895Z,1575
2017-05-17T06:02:56.204Z,1500
2017-05-17T06:03:56.187Z,1490
2017-05-17T06:04:56.187Z,1570
2017-05-17T06:05:56.177Z,1620
2017-05-17T06:06:56.182Z,1655
2017-05-17T06:07:56.169Z,1645
2017-05-17T06:08:56.167Z,1620
2017-05-17T06:09:56.148Z,1625
2017-05-17T06:10:56.149Z,1600
2017-05-17T06:11:56.152Z,1675
2017-05-17T06:12:56.138Z,1735
2017-05-17T06:13:56.132Z,1635
2017-05-17T06:14:56.183Z,1590
2017-05-17T06:15:56.115Z,1585
2017-05-17T06:16:56.108Z,1560
2017-05-17T06:17:55.505Z,1625
2017-05-17T06:18:56.101Z,1815
2017-05-17T06:19:56.096Z,1915
2017-05-17T06:20:56.098Z,1810
2017-05-17T06:21:56.088Z,1675
2017-05-17T06:28:41.788Z,1715
2017-05-17T06:29:42.395Z,1635
2017-05-17T06:30:42.081Z,1690
2017-05-17T06:31:42.378Z,1750
2017-05-17T06:32:42.382Z,1815
2017-05-17T06:33:42.067Z,1905
2017-05-17T06:34:42.365Z,1875
2017-05-17T06:35:42.069Z,1885
2017-05-17T06:36:42.054Z,2055
2017-05-17T06:41:29.950Z,2255
2017-05-17T06:42:15.344Z,2150
2017-05-17T06:43:15.335Z,2030
2017-05-17T06:44:15.328Z,2115
2017-05-17T06:45:15.024Z,2195
2017-05-17T06:46:15.319Z,2050
2017-05-17T06:47:15.315Z,2075
2017-05-17T06:48:15.011Z,2200
2017-05-17T06:49:14.706Z,2050
2017-05-17T06:50:15.009Z,1950
2017-05-17T06:51:15.003Z,2155
2017-05-17T06:52:15.009Z,2195
2017-05-17T06:53:15.290Z,2000
2017-05-17T06:54:14.994Z,1910
2017-05-17T06:55:15.296Z,2000
2017-05-17T06:56:15.292Z,2035
2017-05-17T06:57:15.286Z,1915
2017-05-17T06:58:14.992Z,1825
2017-05-17T07:05:01.599Z,2070
2017-05-17T07:06:01.598Z,2165
2017-05-17T07:07:01.644Z,2145
2017-05-17T07:08:01.586Z,1970
2017-05-17T07:09:01.582Z,1990
2017-05-17T07:10:01.580Z,2165
2017-05-17T07:11:01.586Z,2365
2017-05-17T07:12:01.573Z,2505
2017-05-17T07:13:01.627Z,2410
2017-05-17T07:14:01.572Z,2405
2017-05-17T07:15:01.571Z,2690
2017-05-17T07:16:01.272Z,2795
2017-05-17T07:17:01.564Z,2305
2017-05-17T07:18:01.569Z,2010
2017-05-17T07:19:01.558Z,2255
2017-05-17T07:20:01.573Z,2470
2017-05-17T07:21:01.562Z,2430
2017-05-17T07:22:01.549Z,2565
2017-05-17T07:23:01.561Z,3005
2017-05-17T07:24:01.245Z,3040
2017-05-17T07:25:01.239Z,2580
2017-05-17T07:26:01.231Z,2540
2017-05-17T07:27:01.530Z,2885
2017-05-17T07:28:01.535Z,2575
2017-05-17T07:29:01.528Z,2200
2017-05-17T07:30:01.526Z,2250
2017-05-17T07:31:01.515Z,2685
2017-05-17T07:32:01.525Z,2850
2017-05-17T07:33:01.528Z,2275
2017-05-17T07:34:01.508Z,2150
2017-05-17T07:35:01.508Z,2255
2017-05-17T07:36:01.504Z,2925
2017-05-17T07:37:01.201Z,3425
2017-05-17T07:38:01.497Z,3215
2017-05-17T07:39:01.501Z,3090
2017-05-17T07:40:01.508Z,3155
2017-05-17T07:41:01.488Z,3295
2017-05-17T07:42:01.481Z,2790
2017-05-17T07:43:01.193Z,3105
2017-05-17T07:44:01.492Z,3405
2017-05-17T07:45:01.491Z,2735
2017-05-17T07:46:00.876Z,2850
2017-05-17T07:47:01.476Z,3265
2017-05-17T07:48:00.872Z,2800
2017-05-17T07:49:01.172Z,2875
2017-05-17T07:50:01.220Z,3085
2017-05-17T07:51:01.163Z,2815
2017-05-17T07:52:01.479Z,3400
2017-05-17T07:53:00.864Z,4075
2017-05-17T07:54:01.169Z,3350
2017-05-17T07:55:01.162Z,3205
2017-05-17T07:56:01.158Z,3475
2017-05-17T07:57:01.161Z,3615
2017-05-17T07:58:01.160Z,3215
2017-05-17T07:59:01.222Z,3505
2017-05-17T08:00:01.462Z,4040
2017-05-17T08:01:01.451Z,3465
2017-05-17T08:02:01.455Z,2905
2017-05-17T08:03:01.151Z,2845
2017-05-17T08:04:01.157Z,3230
2017-05-17T08:05:01.450Z,2925
2017-05-17T08:06:01.451Z,2960
2017-05-17T08:07:01.147Z,2910
2017-05-17T08:08:01.150Z,3230
2017-05-17T08:09:01.458Z,3920
2017-05-17T08:10:01.438Z,3910
2017-05-17T08:11:01.451Z,3445
2017-05-17T08:12:01.440Z,3385
2017-05-17T08:13:00.850Z,3255
2017-05-17T08:14:01.149Z,3315
2017-05-17T08:15:01.441Z,3070
2017-05-17T08:16:00.840Z,3280
2017-05-17T08:17:01.131Z,3760
2017-05-17T08:18:01.135Z,2850
2017-05-17T08:19:01.437Z,3160
2017-05-17T08:20:01.434Z,4200
2017-05-17T08:21:01.441Z,3865
2017-05-17T08:22:01.443Z,3695
2017-05-17T08:23:01.477Z,3530
2017-05-17T08:24:01.127Z,3095
2017-05-17T08:25:01.430Z,3150
2017-05-17T08:26:01.429Z,3510
2017-05-17T08:27:01.125Z,4075
2017-05-17T08:28:01.128Z,4040
2017-05-17T08:29:01.116Z,3390
2017-05-17T08:30:01.125Z,3460
2017-05-17T08:31:01.423Z,4205
2017-05-17T08:32:01.117Z,4120
2017-05-17T08:33:01.447Z,4200
2017-05-17T08:34:01.112Z,4235
2017-05-17T08:35:01.118Z,3670
2017-05-17T08:36:01.415Z,3790
2017-05-17T08:37:01.110Z,4155
2017-05-17T08:38:01.109Z,4520
2017-05-17T08:39:01.411Z,4230
2017-05-17T08:40:01.416Z,3745
2017-05-17T08:41:01.405Z,3795
2017-05-17T08:42:01.105Z,3920
2017-05-17T08:43:01.105Z,3745
2017-05-17T08:44:01.112Z,3780
2017-05-17T08:45:01.101Z,4160
2017-05-17T08:46:01.090Z,4495
2017-05-17T08:47:01.087Z,4205
2017-05-17T08:48:01.092Z,3760
2017-05-17T08:49:01.388Z,3570
2017-05-17T08:50:01.407Z,3470
2017-05-17T08:51:01.402Z,3575
2017-05-17T08:52:01.388Z,4575
2017-05-17T08:53:01.382Z,5085
2017-05-17T08:54:01.089Z,4655
2017-05-17T08:55:01.428Z,4475
2017-05-17T08:56:01.392Z,4670
2017-05-17T08:57:01.385Z,4330
2017-05-17T08:58:01.401Z,3980
2017-05-17T08:59:01.395Z,4145
2017-05-17T09:00:01.391Z,3740
2017-05-17T09:01:01.371Z,3650
2017-05-17T09:02:01.078Z,3780
2017-05-17T09:03:01.375Z,3665
2017-05-17T09:04:01.367Z,4045
2017-05-17T09:05:01.386Z,4215
2017-05-17T09:06:00.765Z,4285
2017-05-17T09:07:01.066Z,4485
2017-05-17T09:08:01.386Z,4065
2017-05-17T09:09:01.367Z,3820
2017-05-17T09:10:01.063Z,3975
2017-05-17T09:11:00.761Z,4235
2017-05-17T09:12:01.393Z,4535
2017-05-17T09:13:01.387Z,4095
2017-05-17T09:14:01.361Z,3940
2017-05-17T09:15:01.396Z,4270
2017-05-17T09:16:01.388Z,4340
2017-05-17T09:17:01.389Z,4610
2017-05-17T09:18:01.376Z,4645
2017-05-17T09:19:01.380Z,4765
2017-05-17T09:20:01.365Z,4770
2017-05-17T09:21:01.370Z,4535
2017-05-17T09:22:01.374Z,3635
2017-05-17T09:23:01.364Z,3155
2017-05-17T09:24:01.366Z,4405
2017-05-17T09:25:01.063Z,5690
2017-05-17T09:26:01.396Z,5160
2017-05-17T09:27:01.379Z,4185
2017-05-17T09:28:01.376Z,4260
2017-05-17T09:29:01.378Z,4600
2017-05-17T09:30:01.068Z,4220
2017-05-17T09:31:01.077Z,4450
2017-05-17T09:32:01.386Z,5190
2017-05-17T09:33:01.388Z,5000
2017-05-17T09:34:01.379Z,4220
2017-05-17T09:35:01.389Z,3205
2017-05-17T09:36:01.382Z,3735
2017-05-17T09:37:01.377Z,4780
2017-05-17T09:38:01.386Z,4735
2017-05-17T09:39:01.070Z,4350
2017-05-17T09:40:01.088Z,4235
2017-05-17T09:41:01.372Z,4830
2017-05-17T09:42:01.404Z,4515
2017-05-17T09:43:01.381Z,4590
2017-05-17T09:44:01.386Z,5360
2017-05-17T09:45:01.378Z,4610
2017-05-17T09:46:01.378Z,3940
2017-05-17T09:47:01.386Z,4905
2017-05-17T09:48:01.397Z,5790
2017-05-17T09:49:01.405Z,5005
2017-05-17T09:50:01.400Z,4175
2017-05-17T09:51:01.382Z,3540
2017-05-17T09:52:01.405Z,4565
2017-05-17T09:53:01.085Z,5525
2017-05-17T09:54:01.133Z,4960
2017-05-17T09:55:01.393Z,4560
2017-05-17T09:56:01.391Z,5060
2017-05-17T09:57:01.383Z,6145
2017-05-17T09:58:01.099Z,4995
2017-05-17T09:59:01.094Z,3885
2017-05-17T10:00:01.408Z,4745
2017-05-17T10:01:01.393Z,5755
2017-05-17T10:02:01.393Z,5515
2017-05-17T10:03:01.405Z,5190
2017-05-17T10:04:01.399Z,4200
2017-05-17T10:05:01.098Z,4150
2017-05-17T10:06:01.420Z,4690
2017-05-17T10:07:01.105Z,4105
2017-05-17T10:08:01.413Z,3680
2017-05-17T10:09:01.419Z,4050
2017-05-17T10:10:01.409Z,3945
2017-05-17T10:11:01.418Z,3505
2017-05-17T10:12:01.419Z,4225
2017-05-17T10:13:01.434Z,4475
2017-05-17T10:14:01.415Z,4535
2017-05-17T10:15:01.436Z,4955
2017-05-17T10:16:01.419Z,5060
2017-05-17T10:17:01.443Z,4995
2017-05-17T10:18:01.430Z,4505
2017-05-17T10:19:01.424Z,4105
2017-05-17T10:20:01.479Z,4530
2017-05-17T10:21:01.424Z,4815
2017-05-17T10:22:01.485Z,4910
2017-05-17T10:23:01.441Z,4895
2017-05-17T10:24:01.430Z,4995
2017-05-17T10:25:01.434Z,4950
2017-05-17T10:26:01.435Z,4455
2017-05-17T10:27:01.425Z,4650
2017-05-17T10:28:01.432Z,4875
2017-05-17T10:29:01.434Z,4645
2017-05-17T10:30:01.132Z,4605
2017-05-17T10:31:01.435Z,4545
2017-05-17T10:32:01.462Z,4850
2017-05-17T10:33:01.139Z,4760
2017-05-17T10:34:01.444Z,4605
2017-05-17T10:35:01.463Z,4730
2017-05-17T10:36:01.436Z,4795
2017-05-17T10:37:01.142Z,4625
2017-05-17T10:38:01.452Z,4560
2017-05-17T10:39:01.445Z,4740
2017-05-17T10:40:01.437Z,4135
2017-05-17T10:41:01.150Z,4220
2017-05-17T10:42:01.157Z,5310
2017-05-17T10:43:01.450Z,5295
2017-05-17T10:44:01.139Z,5205
2017-05-17T10:45:01.443Z,5945
2017-05-17T10:46:01.439Z,5385
2017-05-17T10:47:01.145Z,4730
2017-05-17T10:48:01.147Z,4835
2017-05-17T10:49:01.146Z,4865
2017-05-17T10:50:01.161Z,4735
2017-05-17T10:51:01.150Z,4580
2017-05-17T10:52:01.141Z,4305
2017-05-17T10:53:01.146Z,4835
2017-05-17T10:54:01.149Z,5645
2017-05-17T10:55:01.513Z,5260
2017-05-17T10:56:01.448Z,4680
2017-05-17T10:57:01.452Z,4655
2017-05-17T10:58:01.454Z,5080
2017-05-17T10:59:01.145Z,5445
2017-05-17T11:00:01.453Z,4970
2017-05-17T11:01:00.891Z,3645
2017-05-17T11:02:01.455Z,3180
2017-05-17T11:03:01.449Z,3140
2017-05-17T11:04:01.456Z,3770
2017-05-17T11:05:01.466Z,4900
2017-05-17T11:06:01.510Z,4985
2017-05-17T11:07:01.492Z,4520
2017-05-17T11:08:01.449Z,4565
2017-05-17T11:09:01.454Z,4565
2017-05-17T11:10:01.456Z,4735
2017-05-17T11:11:01.166Z,5055
2017-05-17T11:12:01.451Z,5830
2017-05-17T11:13:01.154Z,5740
2017-05-17T11:14:01.460Z,5030
2017-05-17T11:15:01.149Z,4805
2017-05-17T11:16:01.151Z,4820
2017-05-17T11:17:01.150Z,4965
2017-05-17T11:18:01.465Z,5190
2017-05-17T11:19:01.463Z,4975
2017-05-17T11:20:01.453Z,4910
2017-05-17T11:21:01.146Z,4770
2017-05-17T11:22:01.451Z,5130
2017-05-17T11:23:01.151Z,5225
2017-05-17T11:24:01.147Z,4775
2017-05-17T11:25:01.147Z,5005
2017-05-17T11:26:01.147Z,4675
2017-05-17T11:27:01.446Z,4690
2017-05-17T11:28:01.440Z,5485
2017-05-17T11:29:01.143Z,4805
2017-05-17T11:30:01.145Z,3700
2017-05-17T11:31:01.435Z,4300
2017-05-17T11:32:01.142Z,4990
2017-05-17T11:33:01.438Z,4865
2017-05-17T11:34:01.435Z,4845
2017-05-17T11:35:01.439Z,4920
2017-05-17T11:36:01.433Z,5705
2017-05-17T11:37:01.125Z,6275
2017-05-17T11:38:01.438Z,5945
2017-05-17T11:39:01.119Z,5525
2017-05-17T11:40:01.424Z,4805
2017-05-17T11:41:01.424Z,4405
2017-05-17T11:42:01.110Z,4435
2017-05-17T11:43:01.180Z,4470
2017-05-17T11:44:00.810Z,4230
2017-05-17T11:45:01.417Z,4685
2017-05-17T11:46:01.410Z,5210
2017-05-17T11:47:01.414Z,4800
2017-05-17T11:48:01.401Z,3990
2017-05-17T11:49:01.094Z,4720
2017-05-17T11:50:01.402Z,5215
2017-05-17T11:51:01.396Z,4410
2017-05-17T11:52:01.405Z,3865
2017-05-17T11:53:01.398Z,3860
2017-05-17T11:54:01.088Z,4625
2017-05-17T11:55:01.093Z,4915
2017-05-17T11:56:01.075Z,4390
2017-05-17T11:57:01.380Z,4350
2017-05-17T11:58:01.074Z,4195
2017-05-17T11:59:01.373Z,4035
2017-05-17T12:00:01.374Z,3940
2017-05-17T12:01:01.383Z,4715
2017-05-17T12:02:01.378Z,4850
2017-05-17T12:03:01.365Z,4045
2017-05-17T12:04:01.374Z,4795
2017-05-17T12:05:01.060Z,5415
2017-05-17T12:06:01.378Z,5500
2017-05-17T12:07:01.351Z,5285
2017-05-17T12:08:01.350Z,4005
2017-05-17T12:09:01.050Z,3625
2017-05-17T12:10:01.042Z,4060
2017-05-17T12:11:01.038Z,4295
2017-05-17T12:12:01.030Z,4105
2017-05-17T12:13:01.341Z,4035
2017-05-17T12:14:00.726Z,4970
2017-05-17T12:15:01.338Z,4900
2017-05-17T12:16:01.020Z,4525
2017-05-17T12:17:01.022Z,6340
2017-05-17T12:18:01.309Z,7855
2017-05-17T12:19:01.008Z,7020
2017-05-17T12:20:01.330Z,6505
2017-05-17T12:21:01.318Z,6315
2017-05-17T12:22:01.310Z,5750
2017-05-17T12:23:01.317Z,5560
2017-05-17T12:24:01.010Z,5880
2017-05-17T12:25:01.298Z,5545
2017-05-17T12:26:01.308Z,4240
2017-05-17T12:27:01.306Z,3600
2017-05-17T12:28:01.306Z,3165
2017-05-17T12:29:01.359Z,2915
2017-05-17T12:30:00.989Z,2530
2017-05-17T12:31:01.294Z,2460
2017-05-17T12:32:01.298Z,2430
2017-05-17T12:33:01.294Z,2315
2017-05-17T12:34:01.007Z,2215
2017-05-17T12:35:01.292Z,2255
2017-05-17T12:36:01.290Z,2415
2017-05-17T12:37:01.280Z,2355
2017-05-17T12:38:01.284Z,2400
2017-05-17T12:39:01.283Z,2795
2017-05-17T12:40:01.277Z,3135
2017-05-17T12:41:00.967Z,3150
2017-05-17T12:42:01.270Z,3495
2017-05-17T12:43:00.960Z,3865
2017-05-17T12:44:00.954Z,4215
2017-05-17T12:45:01.254Z,4885
2017-05-17T12:46:01.265Z,6190
2017-05-17T12:47:01.276Z,6760
2017-05-17T12:48:01.266Z,6390
2017-05-17T12:49:00.956Z,6125
2017-05-17T12:50:01.254Z,6520
2017-05-17T12:51:00.950Z,6725
2017-05-17T12:52:01.246Z,6030
2017-05-17T12:53:01.237Z,5150
2017-05-17T12:54:01.230Z,4850
2017-05-17T12:55:01.235Z,5490
2017-05-17T12:56:01.230Z,5200
2017-05-17T12:57:00.926Z,4290
2017-05-17T12:58:01.230Z,4150
2017-05-17T12:59:01.223Z,4210
2017-05-17T13:00:01.221Z,3920
2017-05-17T13:01:01.220Z,3460
2017-05-17T13:02:01.219Z,3610
2017-05-17T13:03:01.219Z,4115
2017-05-17T13:04:01.261Z,4285
2017-05-17T13:05:00.610Z,3950
2017-05-17T13:06:01.203Z,4010
2017-05-17T13:07:01.208Z,4170
2017-05-17T13:08:00.903Z,4300
2017-05-17T13:09:01.197Z,4405
2017-05-17T13:10:01.203Z,4465
2017-05-17T13:11:01.193Z,4465
2017-05-17T13:12:01.195Z,4580
2017-05-17T13:13:00.884Z,4875
2017-05-17T13:14:00.880Z,4845
2017-05-17T13:15:00.881Z,4970
2017-05-17T13:16:00.881Z,5210
2017-05-17T13:17:01.178Z,5345
2017-05-17T13:18:01.180Z,1240
2017-05-17T13:19:01.167Z,1190
2017-05-17T13:20:00.872Z,3205
2017-05-17T13:21:00.855Z,4380
2017-05-17T13:22:01.169Z,4205
2017-05-17T13:23:01.155Z,1975
2017-05-17T13:24:01.157Z,4980
2017-05-17T13:25:01.149Z,4705
2017-05-17T13:26:01.142Z,4055
2017-05-17T13:27:01.131Z,3845
2017-05-17T13:28:00.837Z,3980
2017-05-17T13:29:01.128Z,4020
2017-05-17T13:30:01.126Z,4190
2017-05-17T13:31:01.130Z,4405
2017-05-17T13:32:01.122Z,4655
2017-05-17T13:33:01.120Z,905
2017-05-17T13:34:00.819Z,1435
2017-05-17T13:35:01.103Z,1810
2017-05-17T13:36:01.106Z,4675
2017-05-17T13:37:01.095Z,980
2017-05-17T13:38:01.099Z,805
2017-05-17T13:39:01.094Z,775
2017-05-17T13:40:00.785Z,765
2017-05-17T13:41:00.779Z,770
2017-05-17T13:42:00.485Z,795
2017-05-17T13:43:01.086Z,875
2017-05-17T13:44:01.072Z,985
2017-05-17T13:45:00.774Z,1210
2017-05-17T13:46:01.067Z,3700
2017-05-17T13:47:00.760Z,4100
2017-05-17T13:48:01.158Z,1010
2017-05-17T13:49:01.056Z,1750
2017-05-17T13:50:01.047Z,1035
2017-05-17T13:51:01.041Z,970
2017-05-17T13:52:01.042Z,970
2017-05-17T13:53:00.726Z,855
2017-05-17T13:54:01.022Z,865
2017-05-17T13:55:00.718Z,905
2017-05-17T13:56:01.011Z,980
2017-05-17T13:57:01.009Z,1170
2017-05-17T13:58:00.699Z,1645
2017-05-17T13:59:00.711Z,1645
2017-05-17T14:00:00.996Z,2740